Time;durP1;ratioP1;P1;durP2;ratioP2;P2;SDS_P1;SDS_P2;PMS_P1;PMS_P2;Temp;Humidity;BMP_temperature;BMP_pressure;BME280_temperature;BME280_humidity;BME280_pressure;Samples;Min_cycle;Max_cycle;Signal;HPM_P1;HPM_P2
2023/11/14 00:01:20;;;;;;;17.70;3.40;;;15.60;98.20;;;;;;7379212;19;20291;-75
2023/11/14 00:03:49;;;;;;;38.03;3.67;;;15.60;98.20;;;;;;7383124;19;20098;-74
2023/11/14 00:06:18;;;;;;;17.05;3.13;;;15.60;98.20;;;;;;7399727;19;20010;-75
2023/11/14 00:08:49;;;;;;;36.55;4.25;;;15.60;98.20;;;;;;7376818;19;20070;-75
2023/11/14 00:11:18;;;;;;;;;;;15.50;98.20;;;;;;7380401;19;21808;-74
2023/11/14 00:13:48;;;;;;;30.25;4.05;;;15.50;98.20;;;;;;7380050;19;19914;-73
2023/11/14 00:16:16;;;;;;;17.67;3.08;;;15.50;98.30;;;;;;7378956;19;20002;-74
2023/11/14 00:18:45;;;;;;;25.63;3.60;;;15.60;98.30;;;;;;7378519;19;20010;-73
2023/11/14 00:21:14;;;;;;;35.92;4.10;;;15.50;98.60;;;;;;7400173;19;20011;-74
2023/11/14 00:23:43;;;;;;;34.38;3.83;;;15.60;98.30;;;;;;7378150;19;20006;-74
2023/11/14 00:26:15;;;;;;;32.40;3.35;;;15.60;98.30;;;;;;7376915;19;20014;-73
2023/11/14 00:28:44;;;;;;;22.30;3.70;;;15.60;98.30;;;;;;7378779;19;20011;-73
2023/11/14 00:31:13;;;;;;;30.25;3.63;;;15.50;98.30;;;;;;7381022;19;20011;-74
2023/11/14 00:33:42;;;;;;;23.23;3.83;;;15.40;98.30;;;;;;7386418;19;20400;-74
2023/11/14 00:36:08;;;;;;;35.80;4.07;;;15.50;98.30;;;;;;7410613;19;20010;-73
2023/11/14 00:38:37;;;;;;;32.10;4.25;;;15.50;98.30;;;;;;7387137;19;20276;-73
2023/11/14 00:41:06;;;;;;;25.90;3.80;;;15.40;98.10;;;;;;7386850;19;20024;-73
2023/11/14 00:43:37;;;;;;;27.77;4.00;;;15.40;98.20;;;;;;7383365;19;20039;-73
2023/11/14 00:46:12;;;;;;;25.38;3.90;;;15.50;98.30;;;;;;7380638;19;20011;-75
2023/11/14 00:48:41;;;;;;;30.05;3.72;;;15.60;98.30;;;;;;7394327;19;20027;-75
2023/11/14 00:51:10;;;;;;;21.55;3.40;;;15.60;98.20;;;;;;7403048;19;20015;-75
2023/11/14 00:53:39;;;;;;;25.75;3.72;;;15.60;98.10;;;;;;7379382;19;20017;-74
2023/11/14 00:56:09;;;;;;;28.50;3.85;;;15.50;98.10;;;;;;7381666;19;20007;-74
2023/11/14 00:58:41;;;;;;;22.20;3.65;;;15.50;98.10;;;;;;7378739;19;20011;-75
2023/11/14 01:01:09;;;;;;;21.95;3.25;;;15.60;98.10;;;;;;7378215;19;20292;-75
2023/11/14 01:03:38;;;;;;;31.33;3.80;;;15.50;98.00;;;;;;7401786;19;20251;-74
2023/11/14 01:06:07;;;;;;;30.30;3.90;;;15.40;97.90;;;;;;7379112;19;20055;-74
2023/11/14 01:08:36;;;;;;;31.05;3.85;;;15.50;98.00;;;;;;7375111;19;20025;-73
2023/11/14 01:11:05;;;;;;;23.35;4.00;;;15.50;98.00;;;;;;7377238;19;20019;-72
2023/11/14 01:13:33;;;;;;;35.30;4.20;;;15.30;98.10;;;;;;7379871;19;20264;-74
2023/11/14 01:16:05;;;;;;;31.10;3.80;;;15.50;98.20;;;;;;7387378;19;20018;-74
2023/11/14 01:18:34;;;;;;;37.70;5.00;;;15.40;98.20;;;;;;7406635;19;20010;-74
2023/11/14 01:21:03;;;;;;;27.17;3.50;;;15.40;98.20;;;;;;7385242;19;20250;-75
2023/11/14 01:23:32;;;;;;;32.70;4.63;;;15.40;98.30;;;;;;7387204;19;20022;-75
2023/11/14 01:26:00;;;;;;;26.23;3.85;;;15.40;98.70;;;;;;7383525;19;20019;-74
2023/11/14 01:28:29;;;;;;;40.58;4.25;;;15.40;98.20;;;;;;7382759;19;20007;-74
2023/11/14 01:30:58;;;;;;;29.60;3.90;;;15.30;98.30;;;;;;7383573;19;20070;-75
2023/11/14 01:33:29;;;;;;;19.58;3.70;;;15.40;98.40;;;;;;7407621;19;20301;-74
2023/11/14 01:35:58;;;;;;;40.50;4.82;;;15.50;98.40;;;;;;7386235;19;20011;-75
2023/11/14 01:38:27;;;;;;;28.27;4.03;;;15.50;98.40;;;;;;7383856;19;20071;-75
2023/11/14 01:40:55;;;;;;;21.63;3.50;;;15.50;98.40;;;;;;7383619;19;20011;-74
2023/11/14 01:43:25;;;;;;;30.10;4.70;;;15.60;98.40;;;;;;7384181;19;20029;-75
2023/11/14 01:45:54;;;;;;;21.70;3.72;;;15.60;98.40;;;;;;7384032;19;20042;-74
2023/11/14 01:48:22;;;;;;;42.47;3.95;;;15.60;98.30;;;;;;7406731;19;20011;-74
2023/11/14 01:50:54;;;;;;;27.45;3.70;;;15.60;98.30;;;;;;7384291;19;20071;-74
2023/11/14 01:53:22;;;;;;;25.58;3.75;;;15.60;98.30;;;;;;7383766;19;20336;-73
2023/11/14 01:55:51;;;;;;;32.38;4.03;;;15.60;98.30;;;;;;7382418;19;20003;-74
2023/11/14 01:58:20;;;;;;;27.40;3.72;;;15.60;98.20;;;;;;7384594;19;20153;-74
2023/11/14 02:00:48;;;;;;;31.52;4.38;;;15.70;98.30;;;;;;7385844;19;20018;-74
2023/11/14 02:03:20;;;;;;;27.60;3.38;;;15.70;98.30;;;;;;7406741;19;20025;-74
2023/11/14 02:05:50;;;;;;;36.03;4.47;;;15.70;98.30;;;;;;7384102;19;20019;-73
2023/11/14 02:08:22;;;;;;;23.65;4.03;;;15.70;98.40;;;;;;7381615;19;20003;-74
2023/11/14 02:10:51;;;;;;;33.55;4.25;;;15.70;98.40;;;;;;7383742;19;20019;-73
2023/11/14 02:13:19;;;;;;;31.90;4.28;;;15.70;98.40;;;;;;7384780;19;20003;-74
2023/11/14 02:15:48;;;;;;;36.20;4.00;;;15.70;98.40;;;;;;7382628;19;20031;-74
2023/11/14 02:18:19;;;;;;;31.35;3.90;;;15.70;98.40;;;;;;7404923;19;20020;-74
2023/11/14 02:20:48;;;;;;;33.28;3.70;;;15.60;98.40;;;;;;7384735;19;20405;-74
2023/11/14 02:23:21;;;;;;;29.08;3.83;;;15.60;98.60;;;;;;7382000;19;20022;-74
2023/11/14 02:25:53;;;;;;;29.10;3.85;;;15.60;98.70;;;;;;7380632;19;20062;-74
2023/11/14 02:28:22;;;;;;;41.03;4.75;;;15.60;98.60;;;;;;7381781;19;20045;-74
2023/11/14 02:30:51;;;;;;;27.52;3.83;;;15.60;98.60;;;;;;7381637;19;20027;-75
2023/11/14 02:33:19;;;;;;;25.85;4.10;;;15.60;98.60;;;;;;7403632;19;20011;-74
2023/11/14 02:35:48;;;;;;;32.92;3.88;;;15.70;98.60;;;;;;7382889;19;20075;-74
2023/11/14 02:38:18;;;;;;;31.73;4.07;;;15.70;98.60;;;;;;7381857;19;20331;-74
2023/11/14 02:40:49;;;;;;;30.73;3.95;;;15.70;98.60;;;;;;7383364;19;20003;-74
2023/11/14 02:43:21;;;;;;;29.08;4.18;;;15.70;98.60;;;;;;7384415;19;20241;-75
2023/11/14 02:45:49;;;;;;;37.33;4.50;;;15.70;98.50;;;;;;7383940;19;20069;-75
2023/11/14 02:48:19;;;;;;;27.23;3.45;;;15.70;98.50;;;;;;7401857;19;20070;-75
2023/11/14 02:50:53;;;;;;;25.60;3.80;;;15.60;98.60;;;;;;7383507;19;20007;-75
2023/11/14 02:53:22;;;;;;;38.00;5.10;;;15.40;98.80;;;;;;7384048;19;20251;-75
2023/11/14 02:55:51;;;;;;;31.92;4.55;;;15.50;98.80;;;;;;7381283;19;20022;-75
2023/11/14 02:58:22;;;;;;;28.90;4.38;;;15.50;98.80;;;;;;7383170;19;20003;-74
2023/11/14 03:00:51;;;;;;;28.80;4.10;;;15.50;98.80;;;;;;7382393;19;20011;-74
2023/11/14 03:03:20;;;;;;;33.60;4.35;;;15.60;98.90;;;;;;7405273;19;20058;-74
2023/11/14 03:05:49;;;;;;;34.22;3.58;;;15.60;98.80;;;;;;7381826;19;20010;-74
2023/11/14 03:08:18;;;;;;;25.45;3.60;;;15.50;98.80;;;;;;7382536;19;20010;-75
2023/11/14 03:10:47;;;;;;;31.05;3.97;;;15.30;98.90;;;;;;7379762;19;20066;-75
2023/11/14 03:13:16;;;;;;;35.30;4.05;;;15.30;99.00;;;;;;7384643;19;19999;-75
2023/11/14 03:15:47;;;;;;;43.75;4.13;;;15.40;99.20;;;;;;7382752;19;20014;-75
2023/11/14 03:18:16;;;;;;;;;;;15.30;99.10;;;;;;7406450;19;20010;-74
2023/11/14 03:20:44;;;;;;;31.38;3.92;;;15.40;99.20;;;;;;7381583;19;20174;-74
2023/11/14 03:23:10;;;;;;;37.45;3.78;;;15.50;99.10;;;;;;7382867;19;20004;-75
2023/11/14 03:25:39;;;;;;;20.63;3.50;;;15.50;99.00;;;;;;7380254;19;20014;-75
2023/11/14 03:28:08;;;;;;;23.83;4.03;;;15.40;99.00;;;;;;7381720;19;20015;-75
2023/11/14 03:30:36;;;;;;;31.80;4.65;;;15.50;99.10;;;;;;7404237;19;20354;-75
2023/11/14 03:33:08;;;;;;;25.10;3.65;;;15.50;99.00;;;;;;7380247;19;20027;-74
2023/11/14 03:35:37;;;;;;;39.15;4.05;;;15.60;99.00;;;;;;7381743;19;20010;-75
2023/11/14 03:38:06;;;;;;;20.95;4.10;;;15.60;98.90;;;;;;7377495;19;20002;-75
2023/11/14 03:40:34;;;;;;;27.33;4.10;;;15.60;98.90;;;;;;7381741;19;20018;-75
2023/11/14 03:43:03;;;;;;;37.05;4.70;;;15.60;98.90;;;;;;7380343;19;20436;-74
2023/11/14 03:45:32;;;;;;;38.67;4.63;;;15.40;99.00;;;;;;7402744;19;20011;-74
2023/11/14 03:48:00;;;;;;;28.08;4.28;;;15.50;99.00;;;;;;7379158;19;20421;-74
2023/11/14 03:50:32;;;;;;;30.23;4.18;;;15.50;99.10;;;;;;7380278;19;20019;-74
2023/11/14 03:53:01;;;;;;;18.85;3.42;;;15.50;99.10;;;;;;7379218;19;20095;-74
2023/11/14 03:55:29;;;;;;;22.35;3.40;;;15.50;99.20;;;;;;7380980;19;20024;-74
2023/11/14 03:57:58;;;;;;;27.08;4.00;;;15.50;99.10;;;;;;7381951;19;21890;-77
2023/11/14 04:00:26;;;;;;;36.67;4.60;;;15.50;99.10;;;;;;7401397;19;20074;-73
2023/11/14 04:02:55;;;;;;;34.88;4.18;;;15.60;99.10;;;;;;7378604;19;20014;-73
2023/11/14 04:05:24;;;;;;;34.30;4.45;;;15.60;99.10;;;;;;7378954;19;20103;-74
2023/11/14 04:07:55;;;;;;;40.22;4.70;;;15.60;99.10;;;;;;7379348;19;20398;-73
2023/11/14 04:10:24;;;;;;;31.65;4.25;;;15.60;99.10;;;;;;7380800;19;20420;-73
2023/11/14 04:12:53;;;;;;;25.27;3.90;;;15.60;99.10;;;;;;7380250;19;20007;-73
2023/11/14 04:15:22;;;;;;;27.95;3.63;;;15.70;99.00;;;;;;7401085;19;20078;-73
2023/11/14 04:17:50;;;;;;;26.73;3.50;;;15.70;99.10;;;;;;7378488;19;20357;-73
2023/11/14 04:20:19;;;;;;;33.17;4.25;;;15.50;99.20;;;;;;7380553;19;20023;-74
2023/11/14 04:22:47;;;;;;;21.60;3.95;;;15.50;99.30;;;;;;7379317;19;20382;-73
2023/11/14 04:25:19;;;;;;;23.77;3.95;;;15.50;99.30;;;;;;7380090;19;20070;-74
2023/11/14 04:27:48;;;;;;;;;;;15.50;99.40;;;;;;7379557;19;20018;-74
2023/11/14 04:30:16;;;;;;;26.65;3.70;;;15.50;99.60;;;;;;7399007;19;19910;-74
2023/11/14 04:32:45;;;;;;;23.63;3.63;;;15.40;99.40;;;;;;7379845;19;20050;-74
2023/11/14 04:35:14;;;;;;;19.73;3.60;;;15.40;99.50;;;;;;7378684;19;20011;-74
2023/11/14 04:37:44;;;;;;;23.13;3.58;;;15.30;99.60;;;;;;7380226;19;20306;-74
2023/11/14 04:40:13;;;;;;;33.47;4.07;;;15.30;99.70;;;;;;7379843;19;20031;-74
2023/11/14 04:42:45;;;;;;;27.67;3.45;;;15.20;99.90;;;;;;7378944;19;20014;-74
2023/11/14 04:45:16;;;;;;;22.85;3.47;;;15.20;99.90;;;;;;7399374;19;20017;-74
2023/11/14 04:47:45;;;;;;;27.00;4.07;;;15.20;99.90;;;;;;7380055;19;20396;-75
2023/11/14 04:50:14;;;;;;;26.67;4.25;;;15.10;99.90;;;;;;7386136;19;20010;-73
2023/11/14 04:52:43;;;;;;;16.83;3.45;;;14.90;99.90;;;;;;7385857;19;20408;-74
2023/11/14 04:55:12;;;;;;;39.33;5.45;;;15.00;99.90;;;;;;7387192;19;20142;-74
2023/11/14 04:57:43;;;;;;;21.42;3.47;;;15.00;99.90;;;;;;7399719;19;20007;-73
2023/11/14 05:00:12;;;;;;;28.75;3.67;;;15.10;99.90;;;;;;7406634;19;20011;-73
2023/11/14 05:02:42;;;;;;;28.50;3.97;;;15.10;99.90;;;;;;7384538;19;20055;-74
2023/11/14 05:05:11;;;;;;;23.80;3.72;;;15.20;99.90;;;;;;7384926;19;20012;-75
2023/11/14 05:07:40;;;;;;;21.90;3.67;;;15.20;99.90;;;;;;7391885;19;20020;-74
2023/11/14 05:10:11;;;;;;;29.25;4.10;;;15.20;99.90;;;;;;7390970;19;20006;-74
2023/11/14 05:12:39;;;;;;;27.80;4.30;;;15.20;99.90;;;;;;7414331;19;20007;-74
2023/11/14 05:15:12;;;;;;;35.63;4.15;;;15.20;99.90;;;;;;7393252;19;20007;-74
2023/11/14 05:17:42;;;;;;;27.90;4.32;;;15.20;99.90;;;;;;7389603;19;19998;-74
2023/11/14 05:20:13;;;;;;;24.42;4.60;;;15.00;99.90;;;;;;7387357;19;20010;-73
2023/11/14 05:22:41;;;;;;;28.50;4.00;;;15.00;99.90;;;;;;7387188;19;19999;-74
2023/11/14 05:25:11;;;;;;;23.13;3.92;;;15.20;99.90;;;;;;7385212;19;20022;-74
2023/11/14 05:27:40;;;;;;;21.42;3.70;;;15.20;99.90;;;;;;7407661;19;20235;-74
2023/11/14 05:30:12;;;;;;;26.95;3.85;;;15.30;99.90;;;;;;7386459;19;20006;-74
2023/11/14 05:32:41;;;;;;;29.02;3.92;;;15.20;99.90;;;;;;7382699;19;20014;-74
2023/11/14 05:35:12;;;;;;;18.63;3.33;;;15.30;99.90;;;;;;7383932;19;20488;-74
2023/11/14 05:37:40;;;;;;;28.75;3.53;;;15.40;99.90;;;;;;7383726;19;20106;-74
2023/11/14 05:40:12;;;;;;;20.15;3.13;;;15.40;99.90;;;;;;7384991;19;20023;-74
2023/11/14 05:42:40;;;;;;;;;;;15.30;99.90;;;;;;7396144;19;20015;-74
2023/11/14 05:45:13;;;;;;;23.00;3.90;;;15.40;99.90;;;;;;7404246;19;19915;-75
2023/11/14 05:47:42;;;;;;;29.83;3.83;;;15.30;99.90;;;;;;7382572;19;20182;-74
2023/11/14 05:50:11;;;;;;;26.60;3.60;;;15.20;99.90;;;;;;7385065;19;20369;-74
2023/11/14 05:52:40;;;;;;;28.75;4.32;;;15.20;99.90;;;;;;7384567;19;20013;-74
2023/11/14 05:55:10;;;;;;;28.10;3.42;;;15.30;99.90;;;;;;7383926;19;20052;-74
2023/11/14 05:57:39;;;;;;;26.48;4.00;;;15.40;99.90;;;;;;7407301;19;20010;-74
2023/11/14 06:00:15;;;;;;;20.33;3.72;;;15.30;99.90;;;;;;7379629;19;20050;-74
2023/11/14 06:02:46;;;;;;;29.85;3.78;;;15.30;99.90;;;;;;7385676;19;20011;-74
2023/11/14 06:05:16;;;;;;;24.55;3.90;;;15.10;99.90;;;;;;7383377;19;20380;-74
2023/11/14 06:07:45;;;;;;;26.10;3.88;;;15.10;99.90;;;;;;7384020;19;20007;-74
2023/11/14 06:10:14;;;;;;;26.67;4.05;;;15.10;99.90;;;;;;7381083;19;20099;-74
2023/11/14 06:12:43;;;;;;;25.23;3.33;;;15.20;99.90;;;;;;7387635;19;20011;-74
2023/11/14 06:15:16;;;;;;;23.60;3.90;;;15.20;99.90;;;;;;7403459;19;20028;-74
2023/11/14 06:17:44;;;;;;;18.65;3.78;;;15.30;99.90;;;;;;7383778;19;20022;-74
2023/11/14 06:20:15;;;;;;;24.95;3.65;;;15.30;99.90;;;;;;7382893;19;20331;-74
2023/11/14 06:22:43;;;;;;;29.77;3.42;;;15.30;99.90;;;;;;7383183;19;20027;-74
2023/11/14 06:25:12;;;;;;;32.85;3.58;;;15.30;99.90;;;;;;7387612;19;20393;-74
2023/11/14 06:27:41;;;;;;;30.50;3.47;;;15.30;99.90;;;;;;7395515;19;20031;-74
2023/11/14 06:30:11;;;;;;;33.22;4.28;;;15.30;99.90;;;;;;7405302;19;20019;-74
2023/11/14 06:32:42;;;;;;;24.85;3.20;;;15.30;99.90;;;;;;7383737;19;20010;-74
2023/11/14 06:35:11;;;;;;;22.65;3.60;;;15.30;99.90;;;;;;7383206;19;20011;-75
2023/11/14 06:37:42;;;;;;;28.77;3.40;;;15.10;99.90;;;;;;7382015;19;20019;-75
2023/11/14 06:40:12;;;;;;;36.88;4.10;;;14.80;99.90;;;;;;7386415;19;20010;-75
2023/11/14 06:42:41;;;;;;;25.87;3.77;;;14.70;99.90;;;;;;7390992;19;20013;-75
2023/11/14 06:45:13;;;;;;;20.13;3.00;;;14.70;99.90;;;;;;7403412;19;20010;-75
2023/11/14 06:47:44;;;;;;;29.08;3.67;;;14.70;99.90;;;;;;7381507;19;20023;-75
2023/11/14 06:50:13;;;;;;;31.95;3.85;;;14.80;99.90;;;;;;7382377;19;20085;-75
2023/11/14 06:52:42;;;;;;;25.27;3.17;;;15.00;99.90;;;;;;7383942;19;20284;-75
2023/11/14 06:55:11;;;;;;;32.88;3.75;;;15.00;99.90;;;;;;7382817;19;20010;-75
2023/11/14 06:57:40;;;;;;;25.13;3.58;;;15.00;99.90;;;;;;7407353;19;20007;-75
2023/11/14 07:00:10;;;;;;;22.35;3.47;;;14.90;99.90;;;;;;7402603;19;20017;-75
2023/11/14 07:02:39;;;;;;;29.10;3.83;;;15.00;99.90;;;;;;7382047;19;20023;-75
2023/11/14 07:05:11;;;;;;;18.30;3.67;;;15.00;99.90;;;;;;7381117;19;20013;-75
2023/11/14 07:07:40;;;;;;;29.58;4.15;;;15.00;99.90;;;;;;7382354;19;20007;-75
2023/11/14 07:10:10;;;;;;;30.05;3.63;;;15.10;99.90;;;;;;7379766;19;20070;-75
2023/11/14 07:12:39;;;;;;;21.80;3.65;;;15.10;99.90;;;;;;7402590;19;20102;-75
2023/11/14 07:15:10;;;;;;;31.75;3.50;;;15.10;99.90;;;;;;7380507;19;20002;-75
2023/11/14 07:17:39;;;;;;;23.88;3.33;;;15.10;99.90;;;;;;7380845;19;20010;-75
2023/11/14 07:20:12;;;;;;;22.02;3.80;;;15.20;99.90;;;;;;7381382;19;20013;-75
2023/11/14 07:22:42;;;;;;;19.52;4.03;;;14.90;99.90;;;;;;7381983;19;20332;-74
2023/11/14 07:25:11;;;;;;;31.75;4.18;;;15.00;99.90;;;;;;7390307;19;20009;-74
2023/11/14 07:27:41;;;;;;;14.70;3.30;;;15.00;99.90;;;;;;7408098;19;20022;-76
2023/11/14 07:30:12;;;;;;;21.10;3.13;;;15.10;99.90;;;;;;7410118;19;20015;-74
2023/11/14 07:32:41;;;;;;;;;;;15.00;99.90;;;;;;7391204;19;20437;-76
2023/11/14 07:35:13;;;;;;;19.58;2.55;;;14.90;99.90;;;;;;7385736;19;19928;-74
2023/11/14 07:37:41;;;;;;;16.80;3.03;;;14.90;99.90;;;;;;7380260;19;20006;-74
2023/11/14 07:40:12;;;;;;;24.02;2.72;;;15.10;99.90;;;;;;7382195;19;20014;-75
2023/11/14 07:42:42;;;;;;;33.45;3.65;;;15.20;99.90;;;;;;7387350;19;20372;-75
2023/11/14 07:45:12;;;;;;;14.10;2.80;;;15.10;99.90;;;;;;7401739;19;20031;-76
2023/11/14 07:47:42;;;;;;;20.73;3.30;;;15.30;99.90;;;;;;7379573;19;20002;-74
2023/11/14 07:50:14;;;;;;;17.88;3.13;;;15.40;99.90;;;;;;7379287;19;20063;-74
2023/11/14 08:01:22;;;;;;;13.05;2.60;;;15.10;99.90;;;;;;7402045;19;20010;-76
2023/11/14 08:03:51;;;;;;;22.13;3.03;;;15.20;99.90;;;;;;7381842;19;20022;-79
2023/11/14 08:06:23;;;;;;;26.33;3.20;;;15.20;99.90;;;;;;7399656;19;20054;-77
2023/11/14 08:08:52;;;;;;;17.23;3.22;;;15.30;99.90;;;;;;7380082;19;20259;-78
2023/11/14 08:11:21;;;;;;;26.88;3.67;;;15.30;99.90;;;;;;7380893;19;20465;-78
2023/11/14 08:13:50;;;;;;;26.13;2.80;;;15.20;99.90;;;;;;7381153;19;20015;-80
2023/11/14 08:16:19;;;;;;;15.95;2.60;;;15.30;99.90;;;;;;7383930;19;20441;-78
2023/11/14 08:18:48;;;;;;;17.00;2.55;;;15.30;99.90;;;;;;7380489;19;20243;-76
2023/11/14 08:21:20;;;;;;;16.77;3.40;;;15.20;99.90;;;;;;7400193;19;20031;-76
2023/11/14 08:23:51;;;;;;;28.15;3.63;;;15.30;99.90;;;;;;7376882;19;20074;-76
2023/11/14 08:26:21;;;;;;;18.02;2.75;;;15.20;99.90;;;;;;7378878;19;20039;-75
2023/11/14 08:28:50;;;;;;;30.33;3.20;;;15.20;99.90;;;;;;7380322;19;20017;-80
2023/11/14 08:31:18;;;;;;;14.70;2.90;;;15.30;99.90;;;;;;7382050;19;20003;-78
2023/11/14 08:33:47;;;;;;;21.92;2.90;;;15.20;99.90;;;;;;7377413;19;20371;-77
2023/11/14 08:36:16;;;;;;;21.25;2.80;;;15.20;99.90;;;;;;7401250;19;20006;-79
2023/11/14 08:38:44;;;;;;;25.70;3.05;;;15.00;99.90;;;;;;7381245;19;20024;-76
2023/11/14 08:41:16;;;;;;;26.90;3.75;;;15.20;99.90;;;;;;7379621;19;20023;-77
2023/11/14 08:43:45;;;;;;;22.77;3.70;;;15.10;99.90;;;;;;7380181;19;20003;-78
2023/11/14 08:46:15;;;;;;;15.02;2.78;;;15.20;99.90;;;;;;7376985;19;20006;-76
2023/11/14 08:48:43;;;;;;;31.23;3.45;;;15.00;99.90;;;;;;7377297;19;20358;-76
2023/11/14 08:51:15;;;;;;;23.63;3.45;;;15.20;99.90;;;;;;7399571;19;20070;-76
2023/11/14 08:53:45;;;;;;;24.73;3.22;;;15.20;99.90;;;;;;7379026;19;20070;-79
2023/11/14 08:56:16;;;;;;;16.23;2.75;;;15.30;99.90;;;;;;7381458;19;20046;-77
2023/11/14 08:58:47;;;;;;;;;;;15.20;99.90;;;;;;7386064;19;20024;-78
2023/11/14 09:01:15;;;;;;;18.95;3.33;;;15.30;99.90;;;;;;7379875;19;19907;-77
2023/11/14 09:03:44;;;;;;;17.77;3.10;;;15.40;99.90;;;;;;7377847;19;20244;-76
2023/11/14 09:06:13;;;;;;;14.73;2.88;;;15.20;99.90;;;;;;7398980;19;20030;-76
2023/11/14 09:08:42;;;;;;;23.33;3.28;;;15.30;99.90;;;;;;7374556;19;20011;-76
2023/11/14 09:11:11;;;;;;;17.98;2.58;;;15.50;99.90;;;;;;7377498;19;19999;-76
2023/11/14 09:13:42;;;;;;;18.42;3.35;;;15.50;99.90;;;;;;7378999;19;20078;-77
2023/11/14 09:16:11;;;;;;;;;;;15.60;99.90;;;;;;7378195;19;20010;-78
2023/11/14 09:18:40;;;;;;;22.38;3.08;;;15.70;99.90;;;;;;7399320;19;19919;-77
2023/11/14 09:21:09;;;;;;;17.92;2.90;;;15.60;99.90;;;;;;7377449;19;20473;-77
2023/11/14 09:23:38;;;;;;;14.88;2.47;;;15.40;99.90;;;;;;7376659;19;20067;-74
2023/11/14 09:26:07;;;;;;;16.67;2.90;;;15.60;99.90;;;;;;7377256;19;20070;-77
2023/11/14 09:28:37;;;;;;;18.73;2.88;;;15.50;99.90;;;;;;7379057;19;20009;-78
2023/11/14 09:31:09;;;;;;;19.55;3.35;;;15.60;99.90;;;;;;7386701;19;20007;-79
2023/11/14 09:33:39;;;;;;;18.58;2.72;;;15.50;99.90;;;;;;7411008;19;20058;-79
2023/11/14 09:36:11;;;;;;;17.33;2.88;;;15.60;99.90;;;;;;7387827;19;20002;-80
2023/11/14 09:38:40;;;;;;;18.15;2.75;;;15.70;99.90;;;;;;7385585;19;20010;-77
2023/11/14 09:41:11;;;;;;;19.92;3.00;;;15.70;99.90;;;;;;7392912;19;20039;-79
2023/11/14 09:43:42;;;;;;;27.55;3.13;;;15.60;99.90;;;;;;7397964;19;20011;-81
2023/11/14 09:50:02;;;;;;;11.13;2.70;;;15.60;99.90;;;;;;7409463;19;20011;-82
2023/11/14 09:52:31;;;;;;;14.48;2.38;;;15.70;99.90;;;;;;7393537;19;20024;-79
2023/11/14 09:55:11;;;;;;;30.10;2.63;;;15.80;99.90;;;;;;7386070;19;20042;-78
2023/11/14 09:57:40;;;;;;;15.07;2.60;;;15.80;99.90;;;;;;7409291;19;20077;-79
2023/11/14 10:00:11;;;;;;;20.00;3.00;;;15.90;99.90;;;;;;7385954;19;20024;-79
2023/11/14 10:02:41;;;;;;;26.15;3.60;;;15.60;99.90;;;;;;7387282;19;20006;-79
2023/11/14 10:05:13;;;;;;;21.70;2.90;;;15.80;99.90;;;;;;7385724;19;20256;-80
2023/11/14 10:07:42;;;;;;;;;;;15.70;99.90;;;;;;7383572;19;20024;-78
2023/11/14 10:10:11;;;;;;;26.70;2.63;;;15.80;99.90;;;;;;7383688;19;19915;-80
2023/11/14 10:12:40;;;;;;;27.05;3.45;;;15.70;99.90;;;;;;7402004;19;20007;-79
2023/11/14 10:15:10;;;;;;;18.38;2.95;;;15.70;99.90;;;;;;7406685;19;20003;-79
2023/11/14 10:17:43;;;;;;;16.98;2.72;;;15.70;99.90;;;;;;7383989;19;20007;-80
2023/11/14 10:20:17;;;;;;;19.80;3.22;;;15.80;99.90;;;;;;7384897;19;20032;-80
2023/11/14 10:22:50;;;;;;;26.90;3.60;;;15.80;99.90;;;;;;7383989;19;20043;-81
2023/11/14 10:25:29;;;;;;;19.33;3.70;;;15.80;99.90;;;;;;7385674;19;20007;-81
2023/11/14 10:28:04;;;;;;;25.67;4.20;;;15.90;99.90;;;;;;7387075;19;20003;-79
2023/11/14 10:30:49;;;;;;;22.80;3.90;;;15.90;99.90;;;;;;7407829;19;20011;-81
2023/11/14 10:33:18;;;;;;;18.75;4.18;;;15.80;99.90;;;;;;7386378;19;20011;-81
2023/11/14 10:36:21;;;;;;;15.70;2.83;;;15.80;99.90;;;;;;7386118;19;20377;-83
2023/11/14 10:39:03;;;;;;;13.30;3.17;;;15.60;99.90;;;;;;7384213;19;20361;-79
2023/11/14 10:41:32;;;;;;;18.17;3.30;;;15.60;99.90;;;;;;7387235;19;20011;-78
2023/11/14 10:44:08;;;;;;;12.23;2.05;;;15.70;99.90;;;;;;7383667;19;20006;-79
2023/11/14 10:46:37;;;;;;;13.98;3.03;;;15.80;99.90;;;;;;7383585;19;20018;-80
2023/11/14 10:49:08;;;;;;;17.35;2.20;;;15.80;99.90;;;;;;7386728;19;20003;-78
2023/11/14 10:51:41;;;;;;;9.23;2.50;;;15.80;99.90;;;;;;7404205;19;20011;-75
2023/11/14 10:54:10;;;;;;;14.98;3.08;;;15.90;99.90;;;;;;7384266;19;20023;-75
2023/11/14 10:56:42;;;;;;;18.35;2.80;;;15.80;99.90;;;;;;7381432;19;20074;-77
2023/11/14 10:59:14;;;;;;;23.92;2.97;;;15.80;99.90;;;;;;7384205;19;20006;-77
2023/11/14 11:01:44;;;;;;;22.33;3.00;;;15.70;99.90;;;;;;7380544;19;20264;-75
2023/11/14 11:04:16;;;;;;;23.83;3.20;;;15.60;99.90;;;;;;7384029;19;20030;-76
2023/11/14 11:06:47;;;;;;;24.77;3.13;;;15.60;99.90;;;;;;7384127;19;20015;-73
2023/11/14 11:09:18;;;;;;;18.73;3.08;;;15.50;99.90;;;;;;7403458;19;20011;-73
2023/11/14 11:11:52;;;;;;;27.48;3.33;;;15.70;99.90;;;;;;7387858;19;20003;-74
2023/11/14 11:14:23;;;;;;;15.02;2.78;;;15.80;99.90;;;;;;7383295;19;20260;-77
2023/11/14 11:16:54;;;;;;;27.95;3.20;;;15.90;99.90;;;;;;7383005;19;20006;-76
2023/11/14 11:19:30;;;;;;;15.60;3.25;;;15.90;99.90;;;;;;7380898;19;20006;-77
2023/11/14 11:22:13;;;;;;;24.25;3.38;;;16.00;99.90;;;;;;7383760;19;20018;-78
2023/11/14 11:25:19;;;;;;;20.20;3.65;;;15.90;99.90;;;;;;7386274;19;20002;-79
2023/11/14 11:27:47;;;;;;;23.55;3.50;;;15.90;99.90;;;;;;7384971;19;20015;-78
2023/11/14 11:30:19;;;;;;;17.35;2.97;;;16.00;99.90;;;;;;7407428;19;20022;-78
2023/11/14 11:32:55;;;;;;;14.20;3.33;;;15.90;99.90;;;;;;7384563;19;20007;-80
2023/11/14 11:35:26;;;;;;;22.08;3.10;;;15.90;99.90;;;;;;7381815;19;20042;-78
2023/11/14 11:37:59;;;;;;;17.25;3.33;;;15.80;99.90;;;;;;7382981;19;20031;-76
2023/11/14 11:40:31;;;;;;;14.77;2.90;;;15.70;99.90;;;;;;7381062;19;20007;-76
2023/11/14 11:43:18;;;;;;;15.52;2.83;;;15.60;99.90;;;;;;7382490;19;20038;-77
2023/11/14 11:49:33;;;;;;;13.10;3.05;;;15.80;99.90;;;;;;7381649;19;20048;-80
2023/11/14 11:52:14;;;;;;;14.50;3.13;;;15.80;99.90;;;;;;7379928;19;20067;-78
2023/11/14 11:54:48;;;;;;;16.08;3.20;;;15.90;99.90;;;;;;7381206;19;20019;-77
2023/11/14 11:57:22;;;;;;;14.88;2.95;;;15.70;99.90;;;;;;7400382;19;20014;-75
2023/11/14 12:00:22;;;;;;;21.20;3.00;;;15.30;99.90;;;;;;7382160;19;20058;-75
2023/11/14 12:02:51;;;;;;;26.63;3.33;;;15.20;99.90;;;;;;7383953;19;20003;-74
2023/11/14 12:05:19;;;;;;;20.08;2.72;;;15.40;99.90;;;;;;7384554;19;20066;-73
2023/11/14 12:07:49;;;;;;;14.70;2.88;;;15.60;99.90;;;;;;7383401;19;20009;-73
2023/11/14 12:10:21;;;;;;;16.30;3.22;;;15.60;99.90;;;;;;7386042;19;20002;-74
2023/11/14 12:12:53;;;;;;;22.02;2.75;;;15.70;99.90;;;;;;7377876;19;20006;-73
2023/11/14 12:15:22;;;;;;;154.88;54.28;;;15.70;99.90;;;;;;7402734;19;20003;-76
2023/11/14 12:17:56;;;;;;;213.82;70.00;;;15.80;99.90;;;;;;7376559;19;20397;-76
2023/11/14 12:20:28;;;;;;;48.30;13.75;;;15.90;99.90;;;;;;7377023;19;20238;-76
2023/11/14 12:22:57;;;;;;;10.85;2.60;;;15.90;99.90;;;;;;7376850;19;20007;-75
2023/11/14 12:25:29;;;;;;;15.05;2.45;;;15.90;99.90;;;;;;7377337;19;20082;-77
2023/11/14 12:28:03;;;;;;;21.20;2.97;;;15.80;99.90;;;;;;7379772;19;20027;-79
2023/11/14 12:30:42;;;;;;;14.05;2.70;;;15.70;99.90;;;;;;7402807;19;20074;-77
2023/11/14 12:33:16;;;;;;;17.17;2.30;;;15.60;99.90;;;;;;7384413;19;20038;-76
2023/11/14 12:35:56;;;;;;;16.40;2.22;;;15.60;99.90;;;;;;7383844;19;20074;-77
2023/11/14 12:38:35;;;;;;;12.87;2.23;;;15.70;99.90;;;;;;7383364;19;20006;-77
2023/11/14 12:41:24;;;;;;;28.60;3.40;;;15.50;99.90;;;;;;7383140;19;20244;-77
2023/11/14 12:43:55;;;;;;;12.50;2.40;;;15.50;99.90;;;;;;7381667;19;20257;-77
2023/11/14 12:46:28;;;;;;;17.52;2.60;;;15.50;99.90;;;;;;7383432;19;20007;-77
2023/11/14 12:49:11;;;;;;;15.93;2.28;;;15.50;99.90;;;;;;7383748;19;20014;-77
2023/11/14 12:51:43;;;;;;;18.33;2.47;;;15.40;99.90;;;;;;7404678;19;20245;-77
2023/11/14 12:54:12;;;;;;;;;;;15.50;99.90;;;;;;7385449;19;20082;-77
2023/11/14 12:56:43;;;;;;;12.75;2.25;;;15.60;99.90;;;;;;7386954;19;19910;-76
2023/11/14 12:59:12;;;;;;;;;;;15.40;99.90;;;;;;7384670;19;20028;-76
2023/11/14 13:01:42;;;;;;;14.23;2.38;;;15.30;99.90;;;;;;7384134;19;19911;-76
2023/11/14 13:04:11;;;;;;;12.40;2.30;;;15.30;99.90;;;;;;7380113;19;20011;-74
2023/11/14 13:06:42;;;;;;;11.05;2.42;;;15.30;99.90;;;;;;7396896;19;20059;-73
2023/11/14 13:09:11;;;;;;;13.73;2.47;;;15.50;99.90;;;;;;7402362;19;20010;-78
2023/11/14 13:11:51;;;;;;;13.90;2.17;;;15.40;99.90;;;;;;7412765;19;20042;-79
2023/11/14 13:14:20;;;;;;;16.67;2.55;;;15.40;99.90;;;;;;7385997;19;20011;-76